Time;durP1;ratioP1;P1;durP2;ratioP2;P2;SDS_P1;SDS_P2;PMS_P1;PMS_P2;Temp;Humidity;BMP_temperature;BMP_pressure;BME280_temperature;BME280_humidity;BME280_pressure;Samples;Min_cycle;Max_cycle;Signal;HPM_P1;HPM_P2
2022/08/12 00:44:24;;;;;;;5.45;1.70;;;19.70;69.80;;;19.29;54.09;101084.19;4137767;28;20030;-75
2022/08/12 00:46:49;;;;;;;1.70;1.30;;;19.60;70.10;;;19.26;54.35;101075.78;4121109;28;20046;-74
2022/08/12 00:48:52;;;;;;;5.82;1.50;;;19.60;70.40;;;19.24;54.32;101080.50;4137589;28;20026;-74
2022/08/12 00:50:55;;;;;;;2.63;1.52;;;19.60;70.60;;;19.25;54.22;101084.81;4137366;28;20034;-75
2022/08/12 00:52:57;;;;;;;5.32;1.98;;;19.60;70.60;;;19.29;54.22;101081.53;4137037;28;20029;-75
2022/08/12 00:55:01;;;;;;;4.97;1.80;;;19.60;71.10;;;19.30;54.19;101083.19;4137481;28;20037;-75
2022/08/12 00:57:17;;;;;;;2.15;1.70;;;19.60;70.70;;;19.31;54.13;101078.66;4138229;28;20030;-74
2022/08/12 00:59:18;;;;;;;3.33;1.67;;;19.60;70.50;;;19.33;54.10;101088.13;4137120;28;20073;-74
2022/08/12 01:01:20;;;;;;;2.78;1.63;;;19.60;70.40;;;19.38;54.33;101087.53;4137290;28;20489;-74
2022/08/12 01:03:21;;;;;;;6.63;1.90;;;19.60;70.70;;;19.40;53.43;101087.34;4137237;28;20500;-74
2022/08/12 01:12:27;;;;;;;2.10;1.75;;;19.60;70.50;;;19.27;53.93;101083.59;4138026;28;20114;-74
2022/08/12 01:14:28;;;;;;;2.97;1.67;;;19.60;70.40;;;19.23;54.49;101082.34;4136910;28;20034;-74
2022/08/12 01:16:29;;;;;;;3.72;1.73;;;19.60;70.90;;;19.17;54.74;101074.34;4120714;28;20026;-74
2022/08/12 01:18:34;;;;;;;5.13;1.90;;;19.50;71.00;;;19.16;54.43;101083.38;4115924;28;20137;-74
2022/08/12 01:20:48;;;;;;;2.40;1.67;;;19.50;70.70;;;19.19;54.89;101086.47;4136760;28;20482;-74
2022/08/12 01:23:04;;;;;;;;;;;19.50;71.20;;;19.08;55.43;101076.38;4138517;28;20081;-74
2022/08/12 01:25:19;;;;;;;6.00;1.92;;;19.40;71.50;;;19.05;55.58;101079.47;4137891;28;19909;-74
2022/08/12 01:27:23;;;;;;;4.18;1.70;;;19.40;71.80;;;19.03;55.22;101078.00;4136766;28;20030;-74
2022/08/12 01:29:28;;;;;;;4.78;1.52;;;19.40;71.50;;;19.01;54.56;101074.72;4152923;28;20097;-74
2022/08/12 01:31:30;;;;;;;6.55;1.73;;;19.30;70.70;;;19.04;54.32;101082.31;4152832;28;20073;-74
2022/08/12 01:34:04;;;;;;;2.70;1.67;;;19.30;70.60;;;19.05;54.39;101089.31;4152773;28;20101;-74
2022/08/12 01:36:10;;;;;;;2.30;1.30;;;19.30;70.70;;;19.02;54.36;101081.72;4153237;28;20481;-74
2022/08/12 01:38:14;;;;;;;3.95;1.80;;;19.30;70.80;;;19.03;54.50;101088.69;4152544;28;20462;-74
2022/08/12 01:40:15;;;;;;;3.55;1.58;;;19.30;70.80;;;18.99;54.87;101079.44;4152648;28;20033;-74
2022/08/12 01:42:20;;;;;;;4.50;1.63;;;19.30;71.30;;;18.99;55.08;101079.44;4152821;28;20118;-74
2022/08/12 01:44:25;;;;;;;4.43;1.80;;;19.30;71.40;;;18.98;55.31;101083.97;4152887;28;20041;-74
2022/08/12 01:47:04;;;;;;;2.92;1.65;;;19.30;71.50;;;18.94;55.59;101089.91;4152968;28;20053;-74
2022/08/12 01:49:42;;;;;;;3.72;1.90;;;19.30;71.90;;;18.81;56.10;101080.03;4152525;28;20037;-74
2022/08/12 01:51:48;;;;;;;2.40;1.58;;;19.20;72.30;;;18.75;56.63;101087.00;4152892;28;20030;-74
2022/08/12 01:54:05;;;;;;;5.15;1.60;;;19.10;72.50;;;18.77;55.84;101087.59;4152750;28;20029;-74
2022/08/12 01:56:06;;;;;;;1.88;1.50;;;19.10;72.00;;;18.76;55.68;101093.97;4153515;28;20058;-74
2022/08/12 01:59:45;;;;;;;2.63;1.77;;;19.10;72.00;;;18.73;55.42;101083.69;4152557;28;20034;-74
2022/08/12 02:01:12;;;;;;;3.45;1.58;;;19.00;71.90;;;18.69;55.70;101081.63;4152158;28;20025;-74
2022/08/12 02:03:31;;;;;;;3.33;1.60;;;19.00;72.00;;;18.71;56.10;101092.94;4136205;28;20578;-74
2022/08/12 02:11:17;;;;;;;3.45;1.70;;;19.00;72.50;;;18.60;57.21;101089.00;4153260;28;20096;-74
2022/08/12 02:13:45;;;;;;;4.53;1.80;;;19.00;73.30;;;18.60;57.04;101083.66;4152506;28;20092;-74
2022/08/12 02:15:57;;;;;;;2.20;1.55;;;18.90;73.10;;;18.58;57.55;101085.69;4153312;28;20026;-74
2022/08/12 02:18:33;;;;;;;3.80;1.60;;;18.90;73.60;;;18.53;57.66;101077.44;4136300;28;20689;-74
2022/08/12 02:21:03;;;;;;;2.28;1.77;;;18.90;73.70;;;18.50;57.79;101082.34;4129021;28;20038;-74
2022/08/12 02:23:09;;;;;;;7.63;2.00;;;18.80;73.70;;;18.44;58.46;101070.59;4136114;28;20048;-74
2022/08/12 02:25:21;;;;;;;3.15;1.83;;;18.80;74.30;;;18.43;57.84;101074.28;4136131;28;20054;-74
2022/08/12 02:27:26;;;;;;;2.97;1.77;;;18.80;73.90;;;18.44;57.31;101078.59;4152393;28;20026;-74
2022/08/12 02:29:28;;;;;;;4.10;1.80;;;18.70;73.40;;;18.39;57.24;101070.38;4152106;28;20034;-74
2022/08/12 02:31:29;;;;;;;3.75;1.88;;;18.70;73.80;;;18.41;57.69;101076.34;4152115;28;20022;-74
2022/08/12 02:33:32;;;;;;;2.08;1.63;;;18.70;73.60;;;18.38;58.02;101068.72;4151858;28;20033;-74
2022/08/12 02:35:35;;;;;;;3.03;1.85;;;18.70;74.10;;;18.34;57.78;101067.44;4135592;28;20030;-74
2022/08/12 02:37:39;;;;;;;4.68;2.15;;;18.70;73.90;;;18.34;58.31;101072.78;4151865;28;20026;-74
2022/08/12 02:39:48;;;;;;;2.13;1.70;;;18.70;74.10;;;18.32;58.95;101077.53;4151930;28;20041;-74
2022/08/12 02:41:53;;;;;;;3.20;1.50;;;18.70;74.80;;;18.30;58.75;101081.41;4151794;28;20033;-74
2022/08/12 02:44:03;;;;;;;2.03;1.50;;;18.70;74.80;;;18.25;57.91;101069.47;4135492;28;20508;-74
2022/08/12 02:46:08;;;;;;;2.58;1.70;;;18.60;73.90;;;18.24;57.24;101069.69;4151877;28;20076;-74
2022/08/12 02:48:16;;;;;;;3.25;1.60;;;18.60;73.30;;;18.29;57.53;101080.59;4135351;28;20030;-74
2022/08/12 02:50:19;;;;;;;5.60;1.77;;;18.60;73.60;;;18.28;57.54;101081.59;4135623;28;20027;-74
2022/08/12 02:52:22;;;;;;;4.82;1.65;;;18.60;73.70;;;18.31;57.37;101075.06;4151987;28;20029;-74
2022/08/12 02:54:25;;;;;;;4.47;1.90;;;18.60;73.50;;;18.29;57.61;101075.25;4152818;28;20030;-74
2022/08/12 02:56:27;;;;;;;4.97;1.90;;;18.60;73.70;;;18.27;58.25;101079.97;4151550;28;20037;-74
2022/08/12 02:58:31;;;;;;;2.75;1.80;;;18.60;74.20;;;18.20;58.59;101079.94;4151603;28;20034;-74
2022/08/12 03:00:32;;;;;;;;;;;18.60;74.40;;;18.15;59.25;101079.72;4152055;28;20026;-74
2022/08/12 03:02:37;;;;;;;2.08;1.67;;;18.50;75.00;;;18.14;58.67;101079.88;4152638;28;19953;-74
2022/08/12 03:04:49;;;;;;;2.75;1.80;;;18.50;74.40;;;18.12;58.31;101074.75;4135527;28;20026;-74
2022/08/12 03:07:23;;;;;;;1.80;1.42;;;18.50;74.20;;;18.16;58.62;101075.16;4151577;28;20046;-74
2022/08/12 03:09:28;;;;;;;5.35;1.60;;;18.50;74.70;;;18.11;58.46;101073.09;4147827;28;20394;-74
2022/08/12 03:11:39;;;;;;;4.07;1.70;;;18.50;74.30;;;18.14;58.28;101077.22;4135144;28;20041;-74
2022/08/12 03:13:46;;;;;;;6.05;1.95;;;18.50;74.30;;;18.10;58.14;101065.28;4151484;28;20038;-74
2022/08/12 03:15:47;;;;;;;4.50;2.10;;;18.40;74.20;;;18.07;57.93;101061.16;4151315;28;20033;-74
2022/08/12 03:18:13;;;;;;;3.45;1.92;;;18.40;74.00;;;18.11;58.01;101058.91;4151278;28;20092;-74
2022/08/12 03:20:19;;;;;;;5.53;1.83;;;18.40;74.10;;;18.08;58.69;101054.81;4122904;28;20034;-74
2022/08/12 03:22:22;;;;;;;2.67;1.50;;;18.40;74.60;;;18.10;59.07;101068.78;4138595;28;20029;-74
2022/08/12 03:24:26;;;;;;;1.80;1.30;;;18.40;75.10;;;18.06;59.28;101058.69;4127410;28;20030;-74
2022/08/12 03:26:28;;;;;;;1.77;1.60;;;18.40;75.20;;;18.03;60.30;101059.09;4145596;28;20107;-74
2022/08/12 03:28:50;;;;;;;1.83;1.40;;;18.40;76.00;;;17.99;60.84;101058.66;4151237;28;20397;-74
2022/08/12 03:30:52;;;;;;;3.53;2.40;;;18.30;76.40;;;17.97;60.71;101068.72;4152790;28;20057;-74
2022/08/12 03:32:57;;;;;;;2.40;1.85;;;18.30;76.40;;;17.94;60.67;101061.09;4152545;28;20503;-74
2022/08/12 03:35:00;;;;;;;3.38;2.15;;;18.30;76.40;;;17.92;60.05;101052.44;4152482;28;20053;-74
2022/08/12 03:37:06;;;;;;;4.20;2.05;;;18.20;75.80;;;17.92;60.22;101046.31;4151388;28;20085;-74
2022/08/12 03:41:36;;;;;;;2.80;1.77;;;18.20;76.30;;;17.85;61.61;101040.09;4151152;28;20038;-74
2022/08/12 04:01:15;;;;;;;5.00;2.45;;;18.10;75.60;;;17.75;60.37;101039.59;4154359;28;20041;-74
2022/08/12 04:05:37;;;;;;;3.47;2.05;;;18.00;75.60;;;17.77;59.52;101050.94;4154516;28;20587;-74
2022/08/12 04:07:39;;;;;;;2.42;1.80;;;18.00;75.40;;;17.75;59.68;101050.28;4154182;28;20070;-74
2022/08/12 04:09:44;;;;;;;3.97;1.90;;;18.10;75.50;;;17.73;59.64;101037.16;4154140;28;20056;-74
2022/08/12 04:14:19;;;;;;;6.97;2.35;;;18.10;76.30;;;17.72;60.97;101056.84;4155188;28;20088;-74
2022/08/12 04:16:20;;;;;;;3.10;1.88;;;18.00;76.60;;;17.68;60.91;101045.72;4170435;28;20060;-74
2022/08/12 04:18:22;;;;;;;6.18;1.80;;;18.00;76.50;;;17.65;60.49;101040.78;4153790;28;20117;-74
2022/08/12 04:20:23;;;;;;;7.72;2.30;;;18.00;76.20;;;17.70;60.50;101053.53;4139699;28;20034;-74
2022/08/12 04:22:28;;;;;;;3.45;1.58;;;18.00;76.30;;;17.71;60.95;101051.72;4137914;28;20022;-74
2022/08/12 04:24:33;;;;;;;5.65;1.90;;;18.00;76.40;;;17.62;61.28;101041.16;4137869;28;20038;-74
2022/08/12 04:26:34;;;;;;;2.47;1.70;;;18.00;77.00;;;17.62;61.80;101041.16;4133014;28;20026;-74
2022/08/12 04:28:35;;;;;;;3.90;2.00;;;18.00;77.20;;;17.60;62.64;101045.88;4170216;28;20567;-74
2022/08/12 04:30:38;;;;;;;6.07;2.30;;;17.90;77.80;;;17.59;62.47;101046.88;4154029;28;20021;-74
2022/08/12 04:32:40;;;;;;;3.45;1.90;;;17.90;77.60;;;17.57;62.27;101040.94;4153850;28;20445;-74
2022/08/12 04:34:42;;;;;;;3.17;1.70;;;17.90;77.50;;;17.52;62.27;101037.16;4134466;28;20128;-74
2022/08/12 04:36:43;;;;;;;2.97;2.00;;;17.90;77.70;;;17.54;62.46;101043.97;4152481;28;20110;-74
2022/08/12 04:38:44;;;;;;;2.90;2.17;;;17.90;77.50;;;17.49;61.68;101034.88;4137525;28;20026;-74
2022/08/12 04:40:45;;;;;;;2.63;1.73;;;17.90;77.20;;;17.49;62.27;101045.56;4137302;28;20066;-74
2022/08/12 04:42:46;;;;;;;3.45;1.92;;;17.90;77.60;;;17.45;62.16;101030.94;4137518;28;20030;-74
2022/08/12 04:44:47;;;;;;;3.05;1.60;;;17.80;77.70;;;17.47;63.56;101043.06;4137334;28;20034;-74
2022/08/12 04:46:48;;;;;;;2.67;1.85;;;17.80;78.70;;;17.42;62.52;101039.34;4125970;28;20050;-74
2022/08/12 04:48:51;;;;;;;3.30;2.20;;;17.80;77.90;;;17.40;62.65;101036.03;4144370;28;20034;-74
2022/08/12 04:50:52;;;;;;;6.45;2.03;;;17.80;77.80;;;17.37;63.32;101037.25;4148783;28;20101;-74
2022/08/12 04:52:54;;;;;;;4.65;2.33;;;17.80;78.60;;;17.40;62.87;101049.38;4153576;28;20037;-74
2022/08/12 04:54:56;;;;;;;2.70;1.77;;;17.80;78.20;;;17.37;62.49;101042.59;4153572;28;20064;-74
2022/08/12 04:56:57;;;;;;;2.90;1.70;;;17.70;77.80;;;17.34;62.52;101032.31;4153316;28;20033;-74
2022/08/12 04:58:59;;;;;;;5.45;2.25;;;17.70;77.90;;;17.39;62.78;101048.56;4153447;28;20072;-74
2022/08/12 05:01:00;;;;;;;2.67;1.70;;;17.70;78.00;;;17.34;63.27;101034.16;4153321;28;20140;-74
2022/08/12 05:03:01;;;;;;;3.08;1.80;;;17.70;78.40;;;17.36;63.50;101040.94;4137180;28;20053;-74
2022/08/12 05:05:03;;;;;;;2.92;2.10;;;17.70;78.60;;;17.33;63.94;101051.16;4153394;28;20030;-74
2022/08/12 05:07:07;;;;;;;2.00;1.75;;;17.70;79.00;;;17.31;64.21;101054.03;4154192;28;20551;-74
2022/08/12 05:09:08;;;;;;;5.45;2.03;;;17.70;79.30;;;17.31;63.79;101054.03;4153157;28;20033;-74
2022/08/12 05:11:09;;;;;;;3.03;2.08;;;17.70;79.00;;;17.26;63.86;101045.78;4154310;28;20044;-74
2022/08/12 05:13:17;;;;;;;3.17;1.70;;;17.70;79.10;;;17.33;64.36;101056.50;4153266;28;20030;-74
2022/08/12 05:15:18;;;;;;;2.60;1.88;;;17.70;79.40;;;17.33;64.90;101061.81;4137460;28;20093;-74
2022/08/12 05:17:19;;;;;;;2.67;1.60;;;17.70;79.80;;;17.32;65.29;101058.34;4153126;28;20058;-74
2022/08/12 05:19:20;;;;;;;4.82;2.20;;;17.70;80.10;;;17.29;65.37;101050.75;4147410;28;20034;-74
2022/08/12 05:21:21;;;;;;;4.28;2.00;;;17.70;80.30;;;17.32;65.46;101058.34;4144366;28;20046;-74
2022/08/12 05:23:22;;;;;;;3.00;2.30;;;17.70;80.20;;;17.31;64.48;101054.03;4138205;28;20080;-74
2022/08/12 05:25:23;;;;;;;4.63;2.38;;;17.70;79.50;;;17.36;63.82;101062.25;4126052;28;20038;-74
2022/08/12 05:27:24;;;;;;;3.95;2.58;;;17.70;79.10;;;17.38;63.19;101060.22;4127705;28;20076;-74
2022/08/12 05:29:28;;;;;;;3.10;2.13;;;17.70;78.60;;;17.36;63.82;101043.59;4137995;28;20026;-74
2022/08/12 05:31:29;;;;;;;2.53;1.85;;;17.70;79.10;;;17.42;64.61;101060.66;4136493;28;20106;-74
2022/08/12 05:33:39;;;;;;;3.60;1.90;;;17.80;79.70;;;17.43;64.91;101055.16;4136788;28;20038;-74
2022/08/12 05:35:43;;;;;;;4.68;2.33;;;17.80;80.00;;;17.44;64.39;101058.66;4136801;28;20121;-74
2022/08/12 05:37:44;;;;;;;;;;;17.80;79.60;;;17.42;64.19;101058.84;4137066;28;20026;-74
2022/08/12 05:39:45;;;;;;;4.47;2.03;;;17.80;79.50;;;17.52;63.62;101064.66;4136493;28;19960;-74
2022/08/12 05:41:46;;;;;;;4.55;2.05;;;17.90;79.00;;;17.58;63.15;101066.59;4137636;28;20081;-74
2022/08/12 05:43:53;;;;;;;3.72;2.17;;;17.90;78.70;;;17.67;62.83;101064.59;4120298;28;20517;-74
2022/08/12 05:45:55;;;;;;;3.20;2.00;;;18.00;78.50;;;17.76;62.93;101070.63;4143843;28;20510;-74
2022/08/12 05:47:56;;;;;;;3.10;1.90;;;18.00;78.60;;;17.81;63.54;101076.19;4152578;28;20532;-74
2022/08/12 05:49:58;;;;;;;4.47;2.22;;;18.10;79.10;;;17.86;63.61;101074.56;4153822;28;20037;-74
2022/08/12 05:52:01;;;;;;;7.57;2.72;;;18.20;79.10;;;17.92;62.75;101065.78;4152598;28;20072;-74
2022/08/12 05:54:03;;;;;;;3.45;2.22;;;18.20;78.50;;;17.97;62.41;101071.38;4152812;28;20026;-74
2022/08/12 05:56:05;;;;;;;4.18;1.83;;;18.30;78.30;;;18.04;62.35;101066.09;4153375;28;20034;-74
2022/08/12 05:58:06;;;;;;;3.22;2.05;;;18.30;78.10;;;18.11;62.24;101077.63;4152664;28;20109;-74
2022/08/12 06:00:08;;;;;;;4.95;1.75;;;18.40;78.20;;;18.12;62.18;101071.25;4153550;28;20026;-74
2022/08/12 06:02:09;;;;;;;4.68;1.92;;;18.40;78.20;;;18.16;62.58;101065.31;4152490;28;20034;-74
2022/08/12 06:04:13;;;;;;;3.55;2.30;;;18.50;78.40;;;18.22;63.10;101066.38;4153698;28;20038;-74
2022/08/12 06:06:18;;;;;;;3.72;1.98;;;18.50;78.80;;;18.25;63.08;101066.81;4153835;28;20030;-74
2022/08/12 06:08:19;;;;;;;4.88;2.17;;;18.50;78.80;;;18.29;62.79;101069.06;4152645;28;20524;-74
2022/08/12 06:10:19;;;;;;;2.53;1.77;;;18.60;78.70;;;18.36;62.74;101076.13;4152098;28;20033;-74
2022/08/12 06:12:22;;;;;;;3.28;2.10;;;18.70;78.80;;;18.36;62.97;101065.44;4135994;28;20030;-74
2022/08/12 06:14:23;;;;;;;5.93;2.30;;;18.70;78.90;;;18.44;63.34;101070.59;4152287;28;20409;-74
2022/08/12 06:16:25;;;;;;;7.97;4.00;;;18.80;79.10;;;18.51;62.96;101068.00;4152258;28;20036;-74
2022/08/12 06:18:26;;;;;;;4.63;2.28;;;18.80;79.00;;;18.55;62.10;101064.69;4151083;28;20062;-75
2022/08/12 06:20:27;;;;;;;8.20;2.67;;;18.90;78.20;;;18.71;61.84;101068.88;4137224;28;20020;-74
2022/08/12 06:22:28;;;;;;;3.25;2.03;;;19.00;78.10;;;18.74;61.27;101066.63;4136408;28;20105;-74
2022/08/12 06:24:29;;;;;;;4.57;2.25;;;19.10;77.70;;;18.84;60.67;101073.44;4120755;28;20552;-74
2022/08/12 06:26:30;;;;;;;7.28;2.50;;;19.10;77.20;;;18.87;60.42;101071.19;4130563;28;20045;-74
2022/08/12 06:28:31;;;;;;;3.58;1.92;;;19.20;76.80;;;18.96;59.74;101077.16;4135744;28;20033;-74
2022/08/12 06:30:35;;;;;;;4.35;2.33;;;19.30;76.30;;;19.07;59.64;101079.25;4136066;28;20402;-74
2022/08/12 06:32:36;;;;;;;6.10;2.00;;;19.30;76.20;;;19.12;59.27;101082.94;4119632;28;20027;-74
2022/08/12 06:34:37;;;;;;;4.20;2.05;;;19.40;76.10;;;19.17;58.53;101077.84;4136304;28;20072;-74
2022/08/12 06:36:38;;;;;;;4.60;2.30;;;19.50;75.40;;;19.28;58.59;101082.56;4149706;28;20021;-74
2022/08/12 06:38:41;;;;;;;3.85;2.17;;;19.60;75.30;;;19.35;58.15;101083.38;4136898;28;20106;-74
2022/08/12 06:43:07;;;;;;;;;;;19.70;75.10;;;19.48;57.51;101079.94;4137319;28;20041;-74
2022/08/12 06:45:08;;;;;;;5.70;2.33;;;19.90;74.90;;;19.61;57.09;101090.66;4135129;28;20086;-74
2022/08/12 06:47:10;;;;;;;5.25;2.00;;;19.90;74.20;;;19.69;57.02;101077.03;4136706;28;20033;-74
2022/08/12 06:49:11;;;;;;;3.22;1.95;;;20.00;74.00;;;19.79;56.36;101084.66;4136767;28;20022;-74
2022/08/12 06:51:12;;;;;;;4.35;2.38;;;20.10;73.60;;;19.92;55.99;101094.53;4135457;28;20600;-74
2022/08/12 06:53:13;;;;;;;5.97;2.20;;;20.20;73.30;;;19.97;55.85;101078.66;4136689;28;20081;-74
2022/08/12 06:55:19;;;;;;;4.07;2.00;;;20.30;73.20;;;20.02;55.83;101077.00;4135282;28;20030;-74
2022/08/12 06:57:21;;;;;;;4.20;2.08;;;20.30;73.90;;;20.11;56.03;101078.41;4135529;28;20026;-74
2022/08/12 06:59:22;;;;;;;6.45;2.92;;;20.40;73.20;;;20.19;55.94;101091.56;4135197;28;20026;-74
2022/08/12 07:01:23;;;;;;;4.70;2.60;;;20.50;73.70;;;20.25;55.94;101090.75;4135424;28;20030;-74
2022/08/12 07:03:28;;;;;;;6.43;2.33;;;20.60;73.20;;;20.27;55.51;101078.00;4136498;28;20030;-74
2022/08/12 07:05:30;;;;;;;8.05;2.60;;;20.60;72.90;;;20.37;55.03;101078.34;4135465;28;20027;-74
2022/08/12 07:07:31;;;;;;;3.65;2.30;;;20.70;72.60;;;20.47;55.13;101087.81;4135299;28;20030;-74
2022/08/12 07:09:32;;;;;;;4.32;2.45;;;20.80;72.60;;;20.57;55.27;101088.19;4136516;28;20383;-74
2022/08/12 07:11:33;;;;;;;2.75;2.05;;;20.90;72.90;;;20.65;55.21;101080.72;4135102;28;20077;-74
2022/08/12 07:13:43;;;;;;;4.85;2.50;;;21.00;72.50;;;20.77;54.73;101073.66;4136433;28;20053;-74
2022/08/12 07:15:45;;;;;;;3.85;2.10;;;21.10;72.30;;;20.78;54.62;101072.63;4119497;28;20082;-74
2022/08/12 07:17:45;;;;;;;3.80;2.20;;;21.20;72.20;;;20.92;54.67;101089.44;4125390;28;20066;-74
2022/08/12 07:19:49;;;;;;;5.18;2.30;;;21.30;72.30;;;21.01;54.76;101087.34;4136239;28;20493;-74
2022/08/12 07:21:50;;;;;;;3.42;2.00;;;21.30;72.40;;;21.07;54.78;101094.50;4131904;28;20033;-74
2022/08/12 07:23:51;;;;;;;3.40;2.05;;;21.40;72.30;;;21.08;55.22;101072.03;4152526;28;20026;-74
2022/08/12 07:25:53;;;;;;;5.78;2.10;;;21.50;72.60;;;21.05;54.33;101059.06;4128796;28;20027;-74
2022/08/12 07:27:54;;;;;;;4.25;2.10;;;21.50;71.80;;;21.23;53.90;101075.25;4128153;28;20038;-74
2022/08/12 07:29:55;;;;;;;4.35;2.33;;;21.60;71.70;;;21.37;54.13;101090.22;4134952;28;20033;-74
2022/08/12 07:31:58;;;;;;;2.20;2.00;;;21.70;71.70;;;21.41;53.78;101089.53;4136044;28;20397;-74
2022/08/12 07:34:00;;;;;;;5.57;2.13;;;21.80;71.50;;;21.51;53.70;101089.88;4119048;28;20027;-74
2022/08/12 07:36:01;;;;;;;2.67;2.30;;;21.80;71.40;;;21.57;53.72;101092.72;4129345;28;20100;-74
2022/08/12 07:38:02;;;;;;;4.88;2.75;;;21.90;71.30;;;21.65;53.70;101093.31;4134886;28;20034;-74
2022/08/12 07:40:03;;;;;;;6.03;2.17;;;22.00;71.40;;;21.75;53.31;101090.91;4135781;28;20023;-74
2022/08/12 07:42:04;;;;;;;5.38;2.10;;;22.00;70.90;;;21.79;53.46;101086.75;4135016;28;20101;-74
2022/08/12 07:44:08;;;;;;;4.75;2.72;;;22.10;71.30;;;21.86;53.71;101078.66;4134993;28;20398;-74
2022/08/12 07:46:14;;;;;;;3.40;2.20;;;22.20;71.40;;;21.97;53.45;101094.88;4134911;28;20031;-74
2022/08/12 07:48:16;;;;;;;5.47;2.30;;;22.30;71.20;;;22.07;52.62;101077.44;4136058;28;20034;-74
2022/08/12 07:50:19;;;;;;;9.10;2.70;;;22.40;70.60;;;22.20;52.25;101083.47;4134920;28;20036;-74
2022/08/12 07:52:19;;;;;;;8.00;2.30;;;22.50;70.30;;;22.29;52.39;101078.63;4134907;28;20040;-74
2022/08/12 07:54:21;;;;;;;6.95;2.35;;;22.70;70.50;;;22.46;51.97;101085.06;4134899;28;20409;-74
2022/08/12 07:56:22;;;;;;;2.70;2.03;;;22.80;70.00;;;22.52;51.98;101090.31;4135727;28;20026;-74
2022/08/12 07:58:24;;;;;;;4.78;1.80;;;22.90;70.00;;;22.66;51.81;101095.56;4134833;28;20510;-74
2022/08/12 08:00:28;;;;;;;6.60;2.03;;;23.00;69.80;;;22.78;51.80;101096.47;4135977;28;20026;-74
2022/08/12 08:02:32;;;;;;;7.82;2.10;;;23.10;69.80;;;22.92;52.05;101100.59;4118705;28;20031;-74
2022/08/12 08:06:53;;;;;;;8.93;1.98;;;23.40;70.00;;;23.13;52.00;101092.84;4135114;28;20437;-74
2022/08/12 08:08:55;;;;;;;5.07;1.95;;;23.50;70.00;;;23.31;48.59;101083.88;4134824;28;20062;-74
2022/08/12 08:13:19;;;;;;;5.10;1.90;;;23.70;66.20;;;23.59;46.36;101086.78;4134982;28;20094;-74
2022/08/12 08:15:23;;;;;;;4.68;1.77;;;23.90;64.80;;;23.81;46.23;101094.25;4134679;28;20027;-74
2022/08/12 08:17:24;;;;;;;7.55;1.90;;;24.10;64.50;;;23.93;45.41;101093.19;4134497;28;20061;-74
2022/08/12 08:19:27;;;;;;;7.07;2.10;;;24.20;63.40;;;24.04;45.33;101086.97;4135822;28;20029;-74
2022/08/12 08:21:32;;;;;;;8.93;2.30;;;24.30;63.60;;;24.25;44.15;101096.38;4144792;28;20513;-74
2022/08/12 08:24:18;;;;;;;6.90;2.28;;;24.40;62.40;;;24.25;43.56;101066.72;4134866;28;20035;-74
2022/08/12 08:25:54;;;;;;;5.30;1.80;;;24.60;61.80;;;24.38;43.13;101074.53;4134583;28;20041;-74
2022/08/12 08:28:07;;;;;;;8.10;1.92;;;24.80;61.30;;;24.57;43.04;101091.38;4134456;28;20038;-73
2022/08/12 08:30:10;;;;;;;4.57;2.15;;;24.80;61.10;;;24.64;43.17;101086.66;4119773;28;20030;-73
2022/08/12 08:32:11;;;;;;;5.43;2.13;;;25.00;61.80;;;24.70;42.89;101086.50;4150622;28;20029;-74
2022/08/12 08:34:13;;;;;;;4.97;2.05;;;25.00;60.90;;;24.86;42.72;101090.34;4126686;28;20037;-73
2022/08/12 08:36:14;;;;;;;4.28;1.88;;;25.20;61.00;;;25.04;42.52;101090.16;4135811;28;20500;-74
2022/08/12 08:38:16;;;;;;;5.22;2.50;;;25.30;60.80;;;24.97;42.00;101067.88;4135721;28;20027;-74
2022/08/12 08:42:39;;;;;;;3.88;1.98;;;25.50;60.40;;;25.27;42.00;101075.69;4138629;28;20092;-74
2022/08/12 08:44:40;;;;;;;4.63;1.88;;;25.60;60.10;;;25.44;42.14;101078.41;4138499;28;20041;-74
2022/08/12 08:46:43;;;;;;;3.65;1.65;;;25.70;60.50;;;25.60;41.19;101081.13;4138742;28;20516;-73
2022/08/12 08:48:44;;;;;;;5.60;1.77;;;25.90;59.80;;;25.78;40.71;101097.06;4138619;28;20957;-74
2022/08/12 08:50:45;;;;;;;5.25;2.03;;;25.90;59.20;;;25.83;40.96;101075.53;4137384;28;20034;-74
2022/08/12 08:52:47;;;;;;;4.00;1.90;;;26.10;59.40;;;25.92;41.09;101077.81;4138024;28;20038;-74
2022/08/12 08:54:48;;;;;;;2.83;1.60;;;26.10;59.70;;;26.04;40.97;101071.25;4138403;28;20069;-72
2022/08/12 08:56:51;;;;;;;4.45;1.90;;;26.30;59.90;;;26.11;41.33;101061.03;4138535;28;20054;-73
2022/08/12 08:58:51;;;;;;;7.75;2.03;;;26.40;59.90;;;26.31;41.47;101055.91;4138388;28;20034;-73
2022/08/12 09:00:55;;;;;;;8.18;1.83;;;26.60;60.00;;;26.44;41.13;101062.00;4138295;28;20033;-73
2022/08/12 09:02:56;;;;;;;10.50;2.45;;;26.70;60.00;;;26.54;39.79;101057.56;4137296;28;20094;-74
2022/08/12 09:04:57;;;;;;;6.38;1.55;;;26.80;58.50;;;26.74;39.52;101059.66;4137178;28;20030;-74
2022/08/12 09:07:00;;;;;;;4.07;1.40;;;26.90;58.30;;;26.87;39.50;101062.81;4142680;28;20022;-74
2022/08/12 09:09:04;;;;;;;;;;;27.00;58.40;;;26.93;39.52;101056.38;4121486;28;20043;-73
2022/08/12 09:13:28;;;;;;;3.63;1.90;;;27.30;58.10;;;27.32;38.25;101062.41;4137351;28;20656;-76
2022/08/12 09:15:30;;;;;;;4.72;1.90;;;27.40;57.10;;;27.42;38.20;101067.94;4138232;28;20038;-76
2022/08/12 09:17:32;;;;;;;9.18;2.38;;;27.50;57.00;;;27.53;37.27;101065.31;4137118;28;20429;-77
2022/08/12 09:19:33;;;;;;;6.60;1.80;;;27.60;56.30;;;27.64;37.52;101067.81;4138040;28;20485;-77
2022/08/12 09:21:35;;;;;;;6.30;1.75;;;27.70;56.50;;;27.74;37.28;101062.47;4148696;28;20046;-77
2022/08/12 09:23:36;;;;;;;7.30;2.40;;;27.80;56.30;;;27.85;37.29;101053.31;4152998;28;20081;-77
2022/08/12 09:25:39;;;;;;;5.35;1.60;;;27.90;56.40;;;27.98;36.91;101052.03;4142578;28;20057;-78
2022/08/12 09:27:41;;;;;;;8.82;2.00;;;28.00;56.10;;;28.10;36.55;101054.56;4138030;28;20049;-77
2022/08/12 09:29:42;;;;;;;5.43;1.80;;;28.10;55.80;;;28.16;36.44;101043.47;4136614;28;20038;-77
2022/08/12 09:31:43;;;;;;;4.95;1.75;;;28.30;55.70;;;28.35;36.15;101052.78;4120426;28;20086;-77
2022/08/12 09:33:44;;;;;;;8.13;2.00;;;28.40;55.20;;;28.43;34.97;101051.47;4138032;28;20027;-77
2022/08/12 09:35:45;;;;;;;5.63;1.90;;;28.50;54.20;;;28.45;35.98;101035.72;4136727;28;20110;-77
2022/08/12 09:37:48;;;;;;;5.57;2.00;;;28.60;54.90;;;28.53;35.73;101043.31;4136727;28;20188;-77
2022/08/12 09:39:52;;;;;;;3.70;1.75;;;28.60;54.70;;;28.65;34.19;101051.25;4136461;28;20053;-76
2022/08/12 09:46:33;;;;;;;7.45;1.92;;;28.90;53.10;;;28.78;34.29;101027.13;4137813;28;20065;-76
2022/08/12 09:48:34;;;;;;;6.63;1.63;;;29.00;53.10;;;28.95;33.77;101051.31;4136575;28;20469;-76
2022/08/12 09:50:35;;;;;;;6.47;1.85;;;29.00;52.70;;;28.93;34.26;101026.34;4133956;28;20022;-76
2022/08/12 09:52:36;;;;;;;6.28;1.83;;;29.10;53.20;;;29.00;34.03;101024.97;4134965;28;20530;-76
2022/08/12 09:54:37;;;;;;;6.22;1.80;;;29.20;53.10;;;29.15;33.44;101039.66;4136064;28;20049;-75
2022/08/12 09:56:43;;;;;;;5.15;1.90;;;29.30;52.50;;;29.17;33.57;101035.59;4119460;28;20023;-75
2022/08/12 09:58:49;;;;;;;4.35;1.50;;;29.30;52.40;;;29.28;33.26;101033.69;4119784;28;20113;-74
2022/08/12 10:00:50;;;;;;;7.32;2.20;;;29.40;52.30;;;29.32;33.34;101023.91;4106457;28;20051;-75
2022/08/12 10:03:09;;;;;;;4.50;1.60;;;29.50;52.40;;;29.42;31.97;101024.72;4135663;28;20034;-75
2022/08/12 10:05:10;;;;;;;2.90;1.52;;;29.50;51.10;;;29.48;32.82;101029.06;4120084;28;20474;-75
2022/08/12 10:07:11;;;;;;;2.90;1.40;;;29.60;51.60;;;29.53;33.11;101025.53;4132129;28;20026;-75
2022/08/12 10:09:12;;;;;;;6.25;1.60;;;29.60;52.20;;;29.50;31.48;101026.91;4135514;28;20042;-75
2022/08/12 10:13:42;;;;;;;3.90;1.60;;;29.70;50.70;;;29.53;31.34;101030.97;4136695;28;20126;-75
2022/08/12 10:15:44;;;;;;;5.55;1.65;;;29.70;49.90;;;29.58;31.78;101017.34;4136553;28;20027;-76
2022/08/12 10:17:45;;;;;;;5.05;1.60;;;29.80;50.40;;;29.67;32.53;101009.44;4135384;28;20054;-75